<?xml version="1.0" encoding="UTF-8" standalone="no" ?>
<gpx xmlns="http://www.topografix.com/GPX/1/1" xmlns:xsi="http://www.w3.org/2001/XMLSchema-instance" xsi:schemaLocation="http://www.topografix.com/GPX/1/1 http://www.topografix.com/GPX/1/1/gpx.xsd" version="1.1" creator="VisuGPX - https://www.visugpx.com">
  <metadata>
    <name>Tournaboup - Refuge de Bastan</name>
  </metadata>
  <wpt lat="42.90373" lon="0.10217">
    <ele>1462</ele>
    <name><![CDATA[Départ, parking de Tournaboup]]></name>
  </wpt>
  <wpt lat="42.8944" lon="0.10679">
    <ele>1591</ele>
    <name><![CDATA[Pont de la Gaubie]]></name>
  </wpt>
  <wpt lat="42.88324" lon="0.1119">
    <ele>1757</ele>
    <name><![CDATA[Le Pountou]]></name>
  </wpt>
  <wpt lat="42.87525" lon="0.15132">
    <ele>2147</ele>
    <name><![CDATA[Cabane d'Aygues Cluses]]></name>
  </wpt>
  <wpt lat="42.87364" lon="0.17172">
    <ele>2457</ele>
    <name><![CDATA[Hourquette de Nere]]></name>
  </wpt>
  <wpt lat="42.87102" lon="0.20121">
    <ele>2477</ele>
    <name><![CDATA[Hourquette de Caderolle]]></name>
  </wpt>
  <wpt lat="42.86711" lon="0.20637">
    <ele>2495</ele>
    <name><![CDATA[Col de Bastanet]]></name>
  </wpt>
  <wpt lat="42.85328" lon="0.20972">
    <ele>2229</ele>
    <name><![CDATA[Arrivée, refuge du Bastan]]></name>
  </wpt>
  <trk>
    <name><![CDATA[Tournaboup - Refuge de Bastan]]></name>
    <trkseg>
      <trkpt lat="42.90373" lon="0.10217">
        <ele>1462</ele>
        <time>2019-08-11T12:33:27+02:00</time>
      </trkpt>
      <trkpt lat="42.90339" lon="0.10132">
        <ele>1453</ele>
        <time>2019-08-11T12:33:32+02:00</time>
      </trkpt>
      <trkpt lat="42.90248" lon="0.10308">
        <ele>1470</ele>
        <time>2019-08-11T12:33:37+02:00</time>
      </trkpt>
      <trkpt lat="42.90097" lon="0.10453">
        <ele>1487</ele>
        <time>2019-08-11T12:33:42+02:00</time>
      </trkpt>
      <trkpt lat="42.89924" lon="0.10501">
        <ele>1498</ele>
        <time>2019-08-11T12:33:47+02:00</time>
      </trkpt>
      <trkpt lat="42.89754" lon="0.10651">
        <ele>1550</ele>
        <time>2019-08-11T12:33:52+02:00</time>
      </trkpt>
      <trkpt lat="42.8944" lon="0.10679">
        <ele>1591</ele>
        <time>2019-08-11T12:33:57+02:00</time>
      </trkpt>
      <trkpt lat="42.8933" lon="0.10658">
        <ele>1592</ele>
        <time>2019-08-11T12:34:02+02:00</time>
      </trkpt>
      <trkpt lat="42.89206" lon="0.10704">
        <ele>1612</ele>
        <time>2019-08-11T12:34:07+02:00</time>
      </trkpt>
      <trkpt lat="42.88923" lon="0.10751">
        <ele>1680</ele>
        <time>2019-08-11T12:34:12+02:00</time>
      </trkpt>
      <trkpt lat="42.88773" lon="0.10818">
        <ele>1711</ele>
        <time>2019-08-11T12:34:17+02:00</time>
      </trkpt>
      <trkpt lat="42.88622" lon="0.10807">
        <ele>1697</ele>
        <time>2019-08-11T12:34:22+02:00</time>
      </trkpt>
      <trkpt lat="42.88633" lon="0.10889">
        <ele>1720</ele>
        <time>2019-08-11T12:34:27+02:00</time>
      </trkpt>
      <trkpt lat="42.88547" lon="0.10937">
        <ele>1726</ele>
        <time>2019-08-11T12:34:32+02:00</time>
      </trkpt>
      <trkpt lat="42.88465" lon="0.11041">
        <ele>1747</ele>
        <time>2019-08-11T12:34:37+02:00</time>
      </trkpt>
      <trkpt lat="42.88324" lon="0.1119">
        <ele>1757</ele>
        <time>2019-08-11T12:34:42+02:00</time>
      </trkpt>
      <trkpt lat="42.88243" lon="0.11826">
        <ele>1833</ele>
        <time>2019-08-11T12:34:47+02:00</time>
      </trkpt>
      <trkpt lat="42.8819" lon="0.11998">
        <ele>1858</ele>
        <time>2019-08-11T12:34:52+02:00</time>
      </trkpt>
      <trkpt lat="42.8825" lon="0.12116">
        <ele>1880</ele>
        <time>2019-08-11T12:34:57+02:00</time>
      </trkpt>
      <trkpt lat="42.88261" lon="0.1231">
        <ele>1891</ele>
        <time>2019-08-11T12:35:02+02:00</time>
      </trkpt>
      <trkpt lat="42.88266" lon="0.12474">
        <ele>1904</ele>
        <time>2019-08-11T12:35:07+02:00</time>
      </trkpt>
      <trkpt lat="42.88209" lon="0.12686">
        <ele>1913</ele>
        <time>2019-08-11T12:35:12+02:00</time>
      </trkpt>
      <trkpt lat="42.88249" lon="0.12765">
        <ele>1937</ele>
        <time>2019-08-11T12:35:17+02:00</time>
      </trkpt>
      <trkpt lat="42.88251" lon="0.12881">
        <ele>1953</ele>
        <time>2019-08-11T12:35:22+02:00</time>
      </trkpt>
      <trkpt lat="42.88223" lon="0.12997">
        <ele>1951</ele>
        <time>2019-08-11T12:35:27+02:00</time>
      </trkpt>
      <trkpt lat="42.88156" lon="0.1327">
        <ele>1955</ele>
        <time>2019-08-11T12:35:32+02:00</time>
      </trkpt>
      <trkpt lat="42.88175" lon="0.13421">
        <ele>1970</ele>
        <time>2019-08-11T12:35:37+02:00</time>
      </trkpt>
      <trkpt lat="42.88104" lon="0.13564">
        <ele>1979</ele>
        <time>2019-08-11T12:35:42+02:00</time>
      </trkpt>
      <trkpt lat="42.88119" lon="0.13662">
        <ele>1993</ele>
        <time>2019-08-11T12:35:47+02:00</time>
      </trkpt>
      <trkpt lat="42.88104" lon="0.13776">
        <ele>2017</ele>
        <time>2019-08-11T12:35:52+02:00</time>
      </trkpt>
      <trkpt lat="42.88025" lon="0.13744">
        <ele>1998</ele>
        <time>2019-08-11T12:35:57+02:00</time>
      </trkpt>
      <trkpt lat="42.87954" lon="0.13941">
        <ele>2025</ele>
        <time>2019-08-11T12:36:02+02:00</time>
      </trkpt>
      <trkpt lat="42.87956" lon="0.14069">
        <ele>2046</ele>
        <time>2019-08-11T12:36:07+02:00</time>
      </trkpt>
      <trkpt lat="42.87877" lon="0.14305">
        <ele>2075</ele>
        <time>2019-08-11T12:36:12+02:00</time>
      </trkpt>
      <trkpt lat="42.87843" lon="0.1443">
        <ele>2083</ele>
        <time>2019-08-11T12:36:17+02:00</time>
      </trkpt>
      <trkpt lat="42.87846" lon="0.14549">
        <ele>2098</ele>
        <time>2019-08-11T12:36:22+02:00</time>
      </trkpt>
      <trkpt lat="42.87691" lon="0.14579">
        <ele>2091</ele>
        <time>2019-08-11T12:36:27+02:00</time>
      </trkpt>
      <trkpt lat="42.87622" lon="0.1476">
        <ele>2113</ele>
        <time>2019-08-11T12:36:32+02:00</time>
      </trkpt>
      <trkpt lat="42.87561" lon="0.1487">
        <ele>2129</ele>
        <time>2019-08-11T12:36:37+02:00</time>
      </trkpt>
      <trkpt lat="42.87559" lon="0.15009">
        <ele>2140</ele>
        <time>2019-08-11T12:36:42+02:00</time>
      </trkpt>
      <trkpt lat="42.87525" lon="0.15132">
        <ele>2147</ele>
        <time>2019-08-11T12:36:47+02:00</time>
      </trkpt>
      <trkpt lat="42.87584" lon="0.1513">
        <ele>2147</ele>
        <time>2019-08-11T12:36:52+02:00</time>
      </trkpt>
      <trkpt lat="42.87628" lon="0.1529">
        <ele>2161</ele>
        <time>2019-08-11T12:36:57+02:00</time>
      </trkpt>
      <trkpt lat="42.8772" lon="0.15507">
        <ele>2188</ele>
        <time>2019-08-11T12:37:02+02:00</time>
      </trkpt>
      <trkpt lat="42.87808" lon="0.15614">
        <ele>2204</ele>
        <time>2019-08-11T12:37:07+02:00</time>
      </trkpt>
      <trkpt lat="42.87865" lon="0.157">
        <ele>2220</ele>
        <time>2019-08-11T12:37:12+02:00</time>
      </trkpt>
      <trkpt lat="42.87891" lon="0.15814">
        <ele>2231</ele>
        <time>2019-08-11T12:37:17+02:00</time>
      </trkpt>
      <trkpt lat="42.87906" lon="0.16029">
        <ele>2243</ele>
        <time>2019-08-11T12:37:22+02:00</time>
      </trkpt>
      <trkpt lat="42.87875" lon="0.16188">
        <ele>2255</ele>
        <time>2019-08-11T12:37:27+02:00</time>
      </trkpt>
      <trkpt lat="42.87731" lon="0.16466">
        <ele>2267</ele>
        <time>2019-08-11T12:37:32+02:00</time>
      </trkpt>
      <trkpt lat="42.87612" lon="0.16821">
        <ele>2325</ele>
        <time>2019-08-11T12:37:37+02:00</time>
      </trkpt>
      <trkpt lat="42.87506" lon="0.16988">
        <ele>2377</ele>
        <time>2019-08-11T12:37:42+02:00</time>
      </trkpt>
      <trkpt lat="42.87364" lon="0.17172">
        <ele>2457</ele>
        <time>2019-08-11T12:37:47+02:00</time>
      </trkpt>
      <trkpt lat="42.87293" lon="0.17176">
        <ele>2455</ele>
        <time>2019-08-11T12:37:52+02:00</time>
      </trkpt>
      <trkpt lat="42.87424" lon="0.17499">
        <ele>2420</ele>
        <time>2019-08-11T12:37:57+02:00</time>
      </trkpt>
      <trkpt lat="42.87408" lon="0.177">
        <ele>2383</ele>
        <time>2019-08-11T12:38:02+02:00</time>
      </trkpt>
      <trkpt lat="42.87305" lon="0.1788">
        <ele>2343</ele>
        <time>2019-08-11T12:38:07+02:00</time>
      </trkpt>
      <trkpt lat="42.87236" lon="0.17983">
        <ele>2325</ele>
        <time>2019-08-11T12:38:12+02:00</time>
      </trkpt>
      <trkpt lat="42.87183" lon="0.18032">
        <ele>2314</ele>
        <time>2019-08-11T12:38:17+02:00</time>
      </trkpt>
      <trkpt lat="42.87174" lon="0.18218">
        <ele>2307</ele>
        <time>2019-08-11T12:38:22+02:00</time>
      </trkpt>
      <trkpt lat="42.87126" lon="0.18517">
        <ele>2300</ele>
        <time>2019-08-11T12:38:27+02:00</time>
      </trkpt>
      <trkpt lat="42.87074" lon="0.1873">
        <ele>2299</ele>
        <time>2019-08-11T12:38:32+02:00</time>
      </trkpt>
      <trkpt lat="42.87034" lon="0.18857">
        <ele>2293</ele>
        <time>2019-08-11T12:38:37+02:00</time>
      </trkpt>
      <trkpt lat="42.87053" lon="0.18949">
        <ele>2301</ele>
        <time>2019-08-11T12:38:42+02:00</time>
      </trkpt>
      <trkpt lat="42.87036" lon="0.19002">
        <ele>2303</ele>
        <time>2019-08-11T12:38:47+02:00</time>
      </trkpt>
      <trkpt lat="42.87045" lon="0.19063">
        <ele>2305</ele>
        <time>2019-08-11T12:38:52+02:00</time>
      </trkpt>
      <trkpt lat="42.86996" lon="0.1925">
        <ele>2310</ele>
        <time>2019-08-11T12:38:57+02:00</time>
      </trkpt>
      <trkpt lat="42.8697" lon="0.19483">
        <ele>2327</ele>
        <time>2019-08-11T12:39:02+02:00</time>
      </trkpt>
      <trkpt lat="42.86984" lon="0.19553">
        <ele>2338</ele>
        <time>2019-08-11T12:39:07+02:00</time>
      </trkpt>
      <trkpt lat="42.87025" lon="0.19722">
        <ele>2371</ele>
        <time>2019-08-11T12:39:12+02:00</time>
      </trkpt>
      <trkpt lat="42.87057" lon="0.19768">
        <ele>2383</ele>
        <time>2019-08-11T12:39:17+02:00</time>
      </trkpt>
      <trkpt lat="42.87136" lon="0.20003">
        <ele>2461</ele>
        <time>2019-08-11T12:39:22+02:00</time>
      </trkpt>
      <trkpt lat="42.87102" lon="0.20121">
        <ele>2477</ele>
        <time>2019-08-11T12:39:27+02:00</time>
      </trkpt>
      <trkpt lat="42.87102" lon="0.20155">
        <ele>2480</ele>
        <time>2019-08-11T12:39:32+02:00</time>
      </trkpt>
      <trkpt lat="42.87118" lon="0.20171">
        <ele>2480</ele>
        <time>2019-08-11T12:39:37+02:00</time>
      </trkpt>
      <trkpt lat="42.87101" lon="0.20188">
        <ele>2479</ele>
        <time>2019-08-11T12:39:42+02:00</time>
      </trkpt>
      <trkpt lat="42.8716" lon="0.20298">
        <ele>2452</ele>
        <time>2019-08-11T12:39:47+02:00</time>
      </trkpt>
      <trkpt lat="42.87106" lon="0.20464">
        <ele>2414</ele>
        <time>2019-08-11T12:39:52+02:00</time>
      </trkpt>
      <trkpt lat="42.87141" lon="0.20495">
        <ele>2411</ele>
        <time>2019-08-11T12:39:57+02:00</time>
      </trkpt>
      <trkpt lat="42.86984" lon="0.20656">
        <ele>2416</ele>
        <time>2019-08-11T12:40:02+02:00</time>
      </trkpt>
      <trkpt lat="42.86907" lon="0.20644">
        <ele>2422</ele>
        <time>2019-08-11T12:40:07+02:00</time>
      </trkpt>
      <trkpt lat="42.86861" lon="0.20701">
        <ele>2441</ele>
        <time>2019-08-11T12:40:12+02:00</time>
      </trkpt>
      <trkpt lat="42.86751" lon="0.2071">
        <ele>2490</ele>
        <time>2019-08-11T12:40:17+02:00</time>
      </trkpt>
      <trkpt lat="42.86711" lon="0.20637">
        <ele>2495</ele>
        <time>2019-08-11T12:40:22+02:00</time>
      </trkpt>
      <trkpt lat="42.86656" lon="0.20675">
        <ele>2493</ele>
        <time>2019-08-11T12:40:27+02:00</time>
      </trkpt>
      <trkpt lat="42.86542" lon="0.20654">
        <ele>2450</ele>
        <time>2019-08-11T12:40:32+02:00</time>
      </trkpt>
      <trkpt lat="42.8645" lon="0.20714">
        <ele>2416</ele>
        <time>2019-08-11T12:40:37+02:00</time>
      </trkpt>
      <trkpt lat="42.86386" lon="0.20688">
        <ele>2391</ele>
        <time>2019-08-11T12:40:42+02:00</time>
      </trkpt>
      <trkpt lat="42.86347" lon="0.20718">
        <ele>2383</ele>
        <time>2019-08-11T12:40:47+02:00</time>
      </trkpt>
      <trkpt lat="42.8628" lon="0.20705">
        <ele>2364</ele>
        <time>2019-08-11T12:40:52+02:00</time>
      </trkpt>
      <trkpt lat="42.86172" lon="0.207">
        <ele>2340</ele>
        <time>2019-08-11T12:40:57+02:00</time>
      </trkpt>
      <trkpt lat="42.86127" lon="0.20669">
        <ele>2333</ele>
        <time>2019-08-11T12:41:02+02:00</time>
      </trkpt>
      <trkpt lat="42.86105" lon="0.20706">
        <ele>2328</ele>
        <time>2019-08-11T12:41:07+02:00</time>
      </trkpt>
      <trkpt lat="42.85999" lon="0.20671">
        <ele>2308</ele>
        <time>2019-08-11T12:41:12+02:00</time>
      </trkpt>
      <trkpt lat="42.85913" lon="0.20755">
        <ele>2287</ele>
        <time>2019-08-11T12:41:17+02:00</time>
      </trkpt>
      <trkpt lat="42.85754" lon="0.20729">
        <ele>2276</ele>
        <time>2019-08-11T12:41:22+02:00</time>
      </trkpt>
      <trkpt lat="42.85664" lon="0.20695">
        <ele>2278</ele>
        <time>2019-08-11T12:41:27+02:00</time>
      </trkpt>
      <trkpt lat="42.85588" lon="0.20754">
        <ele>2260</ele>
        <time>2019-08-11T12:41:32+02:00</time>
      </trkpt>
      <trkpt lat="42.85595" lon="0.20845">
        <ele>2253</ele>
        <time>2019-08-11T12:41:37+02:00</time>
      </trkpt>
      <trkpt lat="42.85545" lon="0.20939">
        <ele>2248</ele>
        <time>2019-08-11T12:41:42+02:00</time>
      </trkpt>
      <trkpt lat="42.8547" lon="0.20987">
        <ele>2247</ele>
        <time>2019-08-11T12:41:47+02:00</time>
      </trkpt>
      <trkpt lat="42.85408" lon="0.20979">
        <ele>2242</ele>
        <time>2019-08-11T12:41:52+02:00</time>
      </trkpt>
      <trkpt lat="42.85328" lon="0.20972">
        <ele>2229</ele>
        <time>2019-08-11T12:41:57+02:00</time>
      </trkpt>
    </trkseg>
  </trk>
</gpx>